.
WxDataArchive / Data Records for 2015-01-02
2015-01-01 January 2015 2015-01-03

Data Records for Friday, 02 January 2015

Time	Temp	Chill	HIndex	Humid	Dewpt	 Wind 	HiWind	WindDir	Rain 	Barom
-----	----	-----	------	-----	-----	------	------	-------	-----	-----
00:00	27.0	27.0	27.0	61	15.4	0	2	248	0.00	30.149 
00:05	27.0	27.0	27.0	61	15.4	1	4	248	0.00	30.149 
00:10	27.0	27.0	27.0	62	15.7	0	2	248	0.00	30.149 
00:15	26.9	26.9	26.9	62	15.6	0	2	248	0.00	30.149 
00:20	26.9	26.9	26.9	62	15.6	1	3	248	0.00	30.149 
00:25	26.9	26.9	26.9	62	15.6	0	3	248	0.00	30.149 
00:30	26.7	26.7	26.7	62	15.5	0	2	248	0.00	30.145 
00:35	26.7	26.7	26.7	62	15.5	0	2	248	0.00	30.145 
00:40	26.6	26.6	26.6	62	15.4	0	3	248	0.00	30.145 
00:45	26.6	26.6	26.6	63	15.7	0	4	248	0.00	30.148 
00:50	26.4	26.4	26.4	63	15.5	1	4	248	0.00	30.148 
00:55	26.4	26.4	26.4	63	15.5	0	3	248	0.00	30.148 
01:00	26.3	26.3	26.3	63	15.4	0	1	248	0.00	30.150 
01:05	26.1	26.1	26.1	63	15.3	0	5	248	0.00	30.150 
01:10	26.1	26.1	26.1	64	15.6	0	2	248	0.00	30.150 
01:15	26.0	26.0	26.0	64	15.5	0	2	248	0.00	30.151 
01:20	26.0	26.0	26.0	64	15.5	0	3	248	0.00	30.151 
01:25	26.0	26.0	26.0	64	15.5	0	3	248	0.00	30.151 
01:30	26.0	26.0	26.0	64	15.5	0	2	248	0.00	30.157 
01:35	26.0	26.0	26.0	64	15.5	0	3	248	0.00	30.157 
01:40	25.8	25.8	25.8	64	15.3	0	2	248	0.00	30.157 
01:45	26.0	26.0	26.0	64	15.5	0	4	248	0.00	30.159 
01:50	25.8	25.8	25.8	65	15.7	0	2	248	0.00	30.159 
01:55	25.8	25.8	25.8	65	15.7	0	2	248	0.00	30.159 
02:00	25.8	25.8	25.8	65	15.7	0	3	248	0.00	30.164 
02:05	25.7	25.7	25.7	65	15.6	0	2	248	0.00	30.164 
02:10	25.7	25.7	25.7	65	15.6	0	2	248	0.00	30.164 
02:15	25.7	25.7	25.7	65	15.6	0	3	248	0.00	30.175 
02:20	25.7	25.7	25.7	65	15.6	0	2	248	0.00	30.175 
02:25	25.6	25.6	25.6	65	15.5	0	1	248	0.00	30.175 
02:30	25.6	25.6	25.6	65	15.5	0	2	248	0.00	30.174 
02:35	25.4	25.4	25.4	65	15.3	0	2	248	0.00	30.174 
02:40	25.4	25.4	25.4	65	15.3	0	1	248	0.00	30.174 
02:45	25.3	25.3	25.3	65	15.2	0	1	248	0.00	30.177 
02:50	25.1	25.1	25.1	66	15.4	0	1	248	0.00	30.177 
02:55	25.1	25.1	25.1	66	15.4	0	2	248	0.00	30.177 
03:00	25.1	25.1	25.1	66	15.4	0	2	248	0.00	30.179 
03:05	25.1	25.1	25.1	66	15.4	0	1	248	0.00	30.179 
03:10	25.0	25.0	25.0	66	15.3	0	1	248	0.00	30.179 
03:15	25.0	25.0	25.0	66	15.3	0	2	248	0.00	30.187 
03:20	25.0	25.0	25.0	66	15.3	0	1	248	0.00	30.187 
03:25	24.8	24.8	24.8	67	15.4	0	1	248	0.00	30.187 
03:30	24.8	24.8	24.8	67	15.4	0	1	248	0.00	30.196 
03:35	24.8	24.8	24.8	67	15.4	0	1	248	0.00	30.196 
03:40	24.7	24.7	24.7	67	15.3	0	2	248	0.00	30.196 
03:45	24.7	24.7	24.7	67	15.3	0	0	---	0.00	30.203 
03:50	24.7	24.7	24.7	67	15.3	0	2	248	0.00	30.203 
03:55	24.7	24.7	24.7	67	15.3	0	1	248	0.00	30.203 
04:00	24.7	24.7	24.7	67	15.3	0	1	248	0.00	30.206 
04:05	24.7	24.7	24.7	67	15.3	0	1	248	0.00	30.206 
04:10	24.5	24.5	24.5	67	15.1	0	1	248	0.00	30.206 
04:15	24.5	24.5	24.5	67	15.1	0	0	---	0.00	30.207 
04:20	24.4	24.4	24.4	68	15.4	0	1	248	0.00	30.207 
04:25	24.4	24.4	24.4	68	15.4	0	1	248	0.00	30.207 
04:30	24.4	24.4	24.4	68	15.4	0	1	248	0.00	30.209 
04:35	24.2	24.2	24.2	68	15.2	0	1	248	0.00	30.209 
04:40	24.2	24.2	24.2	68	15.2	0	1	248	0.00	30.209 
04:45	24.2	24.2	24.2	68	15.2	0	1	248	0.00	30.209 
04:50	24.2	24.2	24.2	68	15.2	0	1	248	0.00	30.209 
04:55	24.1	24.1	24.1	68	15.1	0	0	---	0.00	30.209 
05:00	24.1	24.1	24.1	69	15.4	0	1	248	0.00	30.208 
05:05	23.9	23.9	23.9	69	15.2	0	1	248	0.00	30.208 
05:10	23.9	23.9	23.9	69	15.2	0	0	---	0.00	30.208 
05:15	23.8	23.8	23.8	69	15.1	0	1	248	0.00	30.210 
05:20	23.8	23.8	23.8	69	15.1	0	1	248	0.00	30.210 
05:25	23.8	23.8	23.8	69	15.1	0	1	248	0.00	30.210 
05:30	23.6	23.6	23.6	69	14.9	0	1	248	0.00	30.220 
05:35	23.6	23.6	23.6	69	14.9	0	0	---	0.00	30.220 
05:40	23.6	23.6	23.6	69	14.9	0	1	248	0.00	30.220 
05:45	23.5	23.5	23.5	70	15.2	0	0	---	0.00	30.223 
05:50	23.3	23.3	23.3	70	15.0	0	0	---	0.00	30.223 
05:55	23.2	23.2	23.2	71	15.2	0	0	---	0.00	30.223 
06:00	23.0	23.0	23.0	71	15.0	0	1	248	0.00	30.226 
06:05	23.0	23.0	23.0	71	15.0	0	0	---	0.00	30.226 
06:10	23.0	23.0	23.0	71	15.0	0	1	248	0.00	30.226 
06:15	23.0	23.0	23.0	71	15.0	0	1	248	0.00	30.227 
06:20	22.9	22.9	22.9	71	14.9	0	0	---	0.00	30.227 
06:25	22.9	22.9	22.9	71	14.9	0	0	---	0.00	30.227 
06:30	22.7	22.7	22.7	72	15.1	0	0	---	0.00	30.230 
06:35	22.7	22.7	22.7	72	15.1	0	0	---	0.00	30.230 
06:40	22.5	22.5	22.5	72	14.9	0	0	---	0.00	30.230 
06:45	22.5	22.5	22.5	73	15.2	0	1	248	0.00	30.241 
06:50	22.5	22.5	22.5	73	15.2	0	1	248	0.00	30.241 
06:55	22.7	22.7	22.7	73	15.4	0	1	248	0.00	30.241 
07:00	22.7	22.7	22.7	73	15.4	0	1	248	0.00	30.251 
07:05	22.7	22.7	22.7	73	15.4	0	1	248	0.00	30.251 
07:10	22.7	22.7	22.7	73	15.4	0	1	248	0.00	30.251 
07:15	22.7	22.7	22.7	73	15.4	0	1	248	0.00	30.257 
07:20	22.7	22.7	22.7	73	15.4	0	1	248	0.00	30.257 
07:25	22.7	22.7	22.7	73	15.4	0	1	248	0.00	30.257 
07:30	22.7	22.7	22.7	73	15.4	0	1	248	0.00	30.258 
07:35	22.7	22.7	22.7	73	15.4	0	1	248	0.00	30.258 
07:40	22.7	22.7	22.7	73	15.4	0	1	248	0.00	30.258 
07:45	22.7	22.7	22.7	73	15.4	0	1	248	0.00	30.262 
07:50	22.7	22.7	22.7	73	15.4	0	1	248	0.00	30.262 
07:55	22.7	22.7	22.7	73	15.4	0	1	248	0.00	30.262 
08:00	22.5	22.5	22.5	73	15.2	0	0	---	0.00	30.272 
08:05	22.5	22.5	22.5	73	15.2	0	1	248	0.00	30.272 
08:10	22.5	22.5	22.5	73	15.2	0	0	---	0.00	30.272 
08:15	22.4	22.4	22.4	73	15.1	0	0	---	0.00	30.277 
08:20	22.4	22.4	22.4	73	15.1	0	0	---	0.00	30.277 
08:25	22.4	22.4	22.4	73	15.1	0	0	---	0.00	30.277 
08:30	22.4	22.4	22.4	73	15.1	0	0	---	0.00	30.288 
08:35	22.5	22.5	22.5	73	15.2	0	1	248	0.00	30.288 
08:40	22.7	22.7	22.7	73	15.4	0	1	248	0.00	30.288 
08:45	22.7	22.7	22.7	73	15.4	0	0	---	0.00	30.288 
08:50	22.9	22.9	22.9	73	15.6	0	0	---	0.00	30.288 
08:55	23.0	23.0	23.0	73	15.7	0	1	248	0.00	30.288 
09:00	23.2	23.2	23.2	73	15.9	0	0	---	0.00	30.293 
09:05	23.3	23.3	23.3	73	15.9	0	1	248	0.00	30.293 
09:10	23.5	23.5	23.5	73	16.1	0	1	248	0.00	30.293 
09:15	23.6	23.6	23.6	72	15.9	0	1	248	0.00	30.303 
09:20	23.8	23.8	23.8	72	16.1	0	1	248	0.00	30.303 
09:25	23.9	23.9	23.9	72	16.2	0	2	248	0.00	30.303 
09:30	24.2	24.2	24.2	71	16.2	0	1	248	0.00	30.305 
09:35	24.5	24.5	24.5	71	16.5	0	1	248	0.00	30.305 
09:40	24.8	24.8	24.8	70	16.4	0	2	248	0.00	30.305 
09:45	25.0	25.0	25.0	70	16.6	0	1	248	0.00	30.318 
09:50	25.3	25.3	25.3	69	16.6	0	2	248	0.00	30.318 
09:55	25.6	25.6	25.6	69	16.9	0	2	248	0.00	30.318 
10:00	25.7	25.7	25.7	68	16.6	0	1	248	0.00	30.332 
10:05	25.8	25.8	25.8	68	16.7	0	2	248	0.00	30.332 
10:10	26.1	26.1	26.1	68	17.0	0	1	248	0.00	30.332 
10:15	26.4	26.4	26.4	67	17.0	0	2	248	0.00	30.336 
10:20	26.7	26.7	26.7	67	17.2	0	2	248	0.00	30.336 
10:25	26.9	26.9	26.9	66	17.1	0	3	248	0.00	30.336 
10:30	26.9	26.9	26.9	65	16.7	0	2	248	0.00	30.350 
10:35	27.0	27.0	27.0	65	16.8	0	1	248	0.00	30.350 
10:40	27.3	27.3	27.3	65	17.1	0	1	248	0.00	30.350 
10:45	27.3	27.3	27.3	65	17.1	0	1	248	0.00	30.346 
10:50	27.5	27.5	27.5	65	17.3	0	1	248	0.00	30.346 
10:55	27.6	27.6	27.6	65	17.4	0	1	248	0.00	30.346 
11:00	28.1	28.1	28.1	65	17.9	0	2	248	0.00	30.361 
11:05	28.5	28.5	28.5	64	17.9	0	2	248	0.00	30.361 
11:10	28.8	28.8	28.8	63	17.8	0	2	248	0.00	30.361 
11:15	29.1	29.1	29.1	63	18.1	0	1	248	0.00	30.353 
11:20	29.4	29.4	29.4	63	18.4	0	1	248	0.00	30.353 
11:25	29.7	29.7	29.7	62	18.3	0	0	---	0.00	30.353 
11:30	29.8	29.8	29.8	62	18.4	0	1	248	0.00	30.341 
11:35	30.0	30.0	30.0	62	18.6	0	2	248	0.00	30.341 
11:40	30.1	30.1	30.1	62	18.7	0	1	248	0.00	30.341 
11:45	30.4	30.4	30.4	61	18.6	0	1	248	0.00	30.340 
11:50	30.6	30.6	30.6	61	18.8	0	1	248	0.00	30.340 
11:55	30.6	30.6	30.6	61	18.8	0	1	248	0.00	30.340 
12:00	30.7	30.7	30.7	61	18.9	0	1	248	0.00	30.327 
12:05	31.0	31.0	31.0	61	19.1	0	1	248	0.00	30.327 
12:10	31.3	31.3	31.3	60	19.0	0	1	248	0.00	30.327 
12:15	31.5	31.5	31.5	59	18.8	0	2	248	0.00	30.314 
12:20	31.8	31.8	31.8	59	19.1	1	4	292	0.00	30.314 
12:25	31.9	31.9	31.9	59	19.2	0	3	292	0.00	30.314 
12:30	32.1	32.1	32.1	59	19.4	0	1	292	0.00	30.309 
12:35	32.4	32.4	32.4	58	19.3	0	1	292	0.00	30.309 
12:40	32.5	32.5	32.5	58	19.4	0	1	292	0.00	30.309 
12:45	32.8	32.8	32.8	58	19.7	0	2	292	0.00	30.302 
12:50	33.1	33.1	33.1	58	20.0	0	1	292	0.00	30.302 
12:55	33.1	33.1	33.1	57	19.5	0	1	292	0.00	30.302 
13:00	33.2	33.2	33.2	57	19.6	0	3	292	0.00	30.298 
13:05	33.2	33.2	33.2	57	19.6	0	2	292	0.00	30.298 
13:10	33.4	33.4	33.4	57	19.8	0	3	292	0.00	30.298 
13:15	33.5	33.5	33.5	56	19.5	0	1	292	0.00	30.294 
13:20	33.7	33.7	33.7	56	19.7	0	2	292	0.00	30.294 
13:25	33.7	33.7	33.7	55	19.3	0	2	292	0.00	30.294 
13:30	34.0	34.0	34.0	54	19.1	0	3	292	0.00	30.295 
13:35	34.1	34.1	34.1	54	19.2	0	1	292	0.00	30.295 
13:40	34.1	34.1	34.1	55	19.6	0	4	292	0.00	30.295 
13:45	34.3	34.3	34.3	55	19.8	0	1	292	0.00	30.296 
13:50	34.3	34.3	34.3	55	19.8	0	2	292	0.00	30.296 
13:55	34.4	34.4	34.4	55	19.9	0	1	292	0.00	30.296 
14:00	34.6	34.6	34.6	55	20.1	0	2	292	0.00	30.296 
14:05	34.6	34.6	34.6	55	20.1	0	2	292	0.00	30.296 
14:10	34.9	34.9	34.9	54	20.0	0	3	292	0.00	30.296 
14:15	35.0	35.0	35.0	54	20.1	0	1	292	0.00	30.298 
14:20	34.9	34.9	34.9	54	20.0	0	1	292	0.00	30.298 
14:25	35.0	35.0	35.0	54	20.1	0	1	292	0.00	30.298 
14:30	35.3	35.3	35.3	54	20.3	0	2	292	0.00	30.295 
14:35	35.3	35.3	35.3	53	19.9	0	2	315	0.00	30.295 
14:40	35.2	35.2	35.2	53	19.8	0	2	315	0.00	30.295 
14:45	35.2	35.2	35.2	53	19.8	0	1	315	0.00	30.294 
14:50	35.2	35.2	35.2	53	19.8	0	2	315	0.00	30.294 
14:55	35.2	35.2	35.2	53	19.8	0	1	315	0.00	30.294 
15:00	35.2	35.2	35.2	54	20.2	0	1	315	0.00	30.296 
15:05	35.2	35.2	35.2	54	20.2	0	2	315	0.00	30.296 
15:10	35.2	35.2	35.2	53	19.8	0	0	---	0.00	30.296 
15:15	35.3	35.3	35.3	53	19.9	0	1	315	0.00	30.294 
15:20	35.3	35.3	35.3	54	20.3	0	0	---	0.00	30.294 
15:25	35.3	35.3	35.3	53	19.9	0	1	315	0.00	30.294 
15:30	35.3	35.3	35.3	53	19.9	0	1	315	0.00	30.293 
15:35	35.3	35.3	35.3	53	19.9	0	1	315	0.00	30.293 
15:40	35.2	35.2	35.2	54	20.2	0	1	315	0.00	30.293 
15:45	35.0	35.0	35.0	54	20.1	0	1	315	0.00	30.295 
15:50	35.0	35.0	35.0	54	20.1	0	0	---	0.00	30.295 
15:55	34.9	34.9	34.9	54	20.0	0	1	315	0.00	30.295 
16:00	34.9	34.9	34.9	54	20.0	0	1	315	0.00	30.293 
16:05	34.9	34.9	34.9	54	20.0	0	1	315	0.00	30.293 
16:10	34.7	34.7	34.7	54	19.8	0	1	315	0.00	30.293 
16:15	34.7	34.7	34.7	55	20.2	0	1	315	0.00	30.298 
16:20	34.6	34.6	34.6	56	20.5	0	1	315	0.00	30.298 
16:25	34.4	34.4	34.4	56	20.3	0	0	---	0.00	30.298 
16:30	34.1	34.1	34.1	56	20.1	0	1	315	0.00	30.300 
16:35	34.0	34.0	34.0	57	20.4	0	0	---	0.00	30.300 
16:40	33.7	33.7	33.7	57	20.1	0	1	315	0.00	30.300 
16:45	33.5	33.5	33.5	58	20.3	0	0	---	0.00	30.302 
16:50	33.4	33.4	33.4	58	20.2	0	0	---	0.00	30.302 
16:55	33.1	33.1	33.1	58	20.0	0	0	---	0.00	30.302 
17:00	32.9	32.9	32.9	58	19.8	0	0	---	0.00	30.305 
17:05	32.8	32.8	32.8	58	19.7	0	0	---	0.00	30.305 
17:10	32.5	32.5	32.5	59	19.8	0	0	---	0.00	30.305 
17:15	32.2	32.2	32.2	60	19.9	0	0	---	0.00	30.317 
17:20	31.9	31.9	31.9	61	20.0	0	0	---	0.00	30.317 
17:25	31.8	31.8	31.8	61	19.9	0	0	---	0.00	30.317 
17:30	31.5	31.5	31.5	62	20.0	0	1	315	0.00	30.312 
17:35	31.3	31.3	31.3	62	19.8	0	0	---	0.00	30.312 
17:40	31.0	31.0	31.0	62	19.5	0	0	---	0.00	30.312 
17:45	30.9	30.9	30.9	63	19.8	0	0	---	0.00	30.328 
17:50	30.6	30.6	30.6	64	19.9	0	0	---	0.00	30.328 
17:55	30.4	30.4	30.4	64	19.7	0	0	---	0.00	30.328 
18:00	30.1	30.1	30.1	65	19.8	0	0	---	0.00	30.335 
18:05	30.0	30.0	30.0	65	19.7	0	0	---	0.00	30.335 
18:10	29.7	29.7	29.7	65	19.4	0	0	---	0.00	30.335 
18:15	29.4	29.4	29.4	66	19.5	0	0	---	0.00	30.335 
18:20	29.1	29.1	29.1	67	19.5	0	0	---	0.00	30.335 
18:25	29.0	29.0	29.0	68	19.8	0	0	---	0.00	30.335 
18:30	28.8	28.8	28.8	68	19.6	0	0	---	0.00	30.341 
18:35	28.5	28.5	28.5	68	19.3	0	0	---	0.00	30.341 
18:40	28.4	28.4	28.4	68	19.2	0	0	---	0.00	30.341 
18:45	28.1	28.1	28.1	69	19.3	0	0	---	0.00	30.345 
18:50	27.9	27.9	27.9	70	19.4	0	0	---	0.00	30.345 
18:55	27.8	27.8	27.8	71	19.6	0	0	---	0.00	30.345 
19:00	27.5	27.5	27.5	71	19.4	0	0	---	0.00	30.350 
19:05	27.3	27.3	27.3	71	19.2	0	0	---	0.00	30.350 
19:10	27.2	27.2	27.2	72	19.4	0	0	---	0.00	30.350 
19:15	27.0	27.0	27.0	72	19.2	0	0	---	0.00	30.348 
19:20	27.0	27.0	27.0	73	19.5	0	0	---	0.00	30.348 
19:25	26.9	26.9	26.9	74	19.7	0	0	---	0.00	30.348 
19:30	26.9	26.9	26.9	74	19.7	0	0	---	0.00	30.346 
19:35	26.7	26.7	26.7	75	19.9	0	0	---	0.00	30.346 
19:40	26.7	26.7	26.7	75	19.9	0	0	---	0.00	30.346 
19:45	26.7	26.7	26.7	76	20.2	0	0	---	0.00	30.352 
19:50	26.7	26.7	26.7	76	20.2	0	0	---	0.00	30.352 
19:55	26.6	26.6	26.6	76	20.1	0	0	---	0.00	30.352 
20:00	26.6	26.6	26.6	76	20.1	0	0	---	0.00	30.348 
20:05	26.6	26.6	26.6	77	20.4	0	0	---	0.00	30.348 
20:10	26.6	26.6	26.6	77	20.4	0	0	---	0.00	30.348 
20:15	26.7	26.7	26.7	77	20.5	0	0	---	0.00	30.346 
20:20	26.7	26.7	26.7	77	20.5	0	0	---	0.00	30.346 
20:25	26.9	26.9	26.9	77	20.7	0	0	---	0.00	30.346 
20:30	27.0	27.0	27.0	77	20.8	0	1	315	0.00	30.334 
20:35	27.2	27.2	27.2	77	21.0	0	1	315	0.00	30.334 
20:40	27.3	27.3	27.3	77	21.1	0	1	315	0.00	30.334 
20:45	27.3	27.3	27.3	76	20.8	0	0	---	0.00	30.332 
20:50	27.5	27.5	27.5	76	20.9	0	0	---	0.00	30.332 
20:55	27.5	27.5	27.5	76	20.9	0	0	---	0.00	30.332 
21:00	27.5	27.5	27.5	76	20.9	0	0	---	0.00	30.333 
21:05	27.5	27.5	27.5	76	20.9	0	0	---	0.00	30.333 
21:10	27.5	27.5	27.5	76	20.9	0	0	---	0.00	30.333 
21:15	27.5	27.5	27.5	76	20.9	0	0	---	0.00	30.317 
21:20	27.5	27.5	27.5	76	20.9	0	0	---	0.00	30.317 
21:25	27.6	27.6	27.6	76	21.0	0	0	---	0.00	30.317 
21:30	27.6	27.6	27.6	76	21.0	0	1	315	0.00	30.304 
21:35	27.8	27.8	27.8	76	21.2	0	0	---	0.00	30.304 
21:40	27.9	27.9	27.9	76	21.3	0	0	---	0.00	30.304 
21:45	27.9	27.9	27.9	75	21.0	0	0	---	0.00	30.316 
21:50	28.1	28.1	28.1	75	21.2	0	0	---	0.00	30.316 
21:55	27.9	27.9	27.9	75	21.0	0	0	---	0.00	30.316 
22:00	27.9	27.9	27.9	75	21.0	0	0	---	0.00	30.314 
22:05	27.8	27.8	27.8	76	21.2	0	0	---	0.00	30.314 
22:10	27.8	27.8	27.8	76	21.2	0	1	315	0.00	30.314 
22:15	27.9	27.9	27.9	76	21.3	0	2	315	0.00	30.297 
22:20	27.9	27.9	27.9	76	21.3	0	1	315	0.00	30.297 
22:25	28.1	28.1	28.1	76	21.5	0	1	315	0.00	30.297 
22:30	28.2	28.2	28.2	76	21.6	0	1	315	0.00	30.273 
22:35	28.2	28.2	28.2	75	21.3	0	1	315	0.00	30.273 
22:40	28.2	28.2	28.2	76	21.6	0	1	315	0.00	30.273 
22:45	28.2	28.2	28.2	75	21.3	0	1	315	0.00	30.276 
22:50	28.2	28.2	28.2	75	21.3	0	1	315	0.00	30.276 
22:55	28.1	28.1	28.1	76	21.5	0	1	315	0.00	30.276 
23:00	27.9	27.9	27.9	76	21.3	0	1	315	0.00	30.268 
23:05	27.9	27.9	27.9	76	21.3	0	0	---	0.00	30.268 
23:10	27.8	27.8	27.8	76	21.2	0	0	---	0.00	30.268 
23:15	27.8	27.8	27.8	76	21.2	0	2	315	0.00	30.266 
23:20	27.8	27.8	27.8	76	21.2	0	1	315	0.00	30.266 
23:25	27.8	27.8	27.8	77	21.5	0	2	315	0.00	30.266 
23:30	27.8	27.8	27.8	76	21.2	0	1	315	0.00	30.272 
23:35	27.8	27.8	27.8	76	21.2	0	0	---	0.00	30.272 
23:40	27.6	27.6	27.6	77	21.4	0	1	315	0.00	30.272 
23:45	27.6	27.6	27.6	77	21.4	0	1	315	0.00	30.266 
23:50	27.6	27.6	27.6	77	21.4	0	1	315	0.00	30.266 
23:55	27.6	27.6	27.6	77	21.4	0	1	315	0.00	30.266 

CoCoRaHS
IN-AL-39
A2 Web Hosting
Creative Commons License
GoDaddy
search engine by freefind advanced

loaded 2018-11-19 18:39:49 • last modified 2010-11-18 10:43:29
Privacy PolicyDisclaimer
• wx.awcolley.com is powered by PmWiki v.2002016 •
• all content (unless otherwise noted) © 2018 A W Colley